Time;durP1;ratioP1;P1;durP2;ratioP2;P2;SDS_P1;SDS_P2;PMS_P1;PMS_P2;Temp;Humidity;BMP_temperature;BMP_pressure;BME280_temperature;BME280_humidity;BME280_pressure;Samples;Min_cycle;Max_cycle;Signal;HPM_P1;HPM_P2
2021/06/10 00:01:12;;;;;;;19.63;12.63;;;;;;;16.26;79.77;98866.34;5126823;28;20122;-93
2021/06/10 00:03:37;;;;;;;20.20;13.43;;;;;;;16.33;80.08;98878.50;5132457;27;20066;-93
2021/06/10 00:06:04;;;;;;;18.40;13.40;;;;;;;16.18;79.91;98853.31;5132807;27;20070;-93
2021/06/10 00:08:32;;;;;;;20.67;12.73;;;;;;;16.28;79.45;98870.66;5133005;27;20042;-92
2021/06/10 00:11:00;;;;;;;19.35;13.25;;;;;;;16.26;79.28;98864.50;5132865;27;20086;-94
2021/06/10 00:13:26;;;;;;;17.80;13.02;;;;;;;16.10;79.80;98866.22;5132569;27;20042;-93
2021/06/10 00:15:52;;;;;;;21.10;13.65;;;;;;;15.97;80.52;98844.47;5126470;28;20039;-94
2021/06/10 00:18:17;;;;;;;21.70;13.35;;;;;;;15.99;80.18;98859.53;5133110;27;20043;-92
2021/06/10 00:20:43;;;;;;;17.95;13.02;;;;;;;16.01;79.94;98865.69;5133056;27;20039;-93
2021/06/10 00:23:10;;;;;;;19.67;12.43;;;;;;;16.06;80.16;98868.16;5132974;27;20059;-92
2021/06/10 00:25:36;;;;;;;20.52;13.45;;;;;;;16.06;80.02;98853.88;5133060;27;20047;-92
2021/06/10 00:28:04;;;;;;;18.63;13.23;;;;;;;16.10;79.97;98866.22;5131964;27;20031;-94
2021/06/10 00:30:31;;;;;;;22.27;13.63;;;;;;;16.01;79.57;98856.78;5128297;27;20051;-93
2021/06/10 00:32:57;;;;;;;20.05;13.25;;;;;;;15.87;79.30;98849.38;5132721;27;20039;-92
2021/06/10 00:35:24;;;;;;;20.95;14.35;;;;;;;15.86;79.83;98854.84;5130269;27;20093;-93
2021/06/10 00:37:51;;;;;;;20.30;14.30;;;;;;;15.69;80.34;98843.06;5128347;27;20481;-92
2021/06/10 00:40:17;;;;;;;19.27;13.90;;;;;;;15.79;79.86;98870.34;5127172;28;20039;-92
2021/06/10 00:42:43;;;;;;;20.38;14.63;;;;;;;15.57;81.16;98847.19;5132756;27;20073;-94
2021/06/10 00:45:14;;;;;;;23.35;14.73;;;;;;;15.59;80.78;98853.34;5131169;27;20037;-94
2021/06/10 00:47:40;;;;;;;20.40;13.73;;;;;;;15.60;80.30;98862.25;5123801;27;20134;-95
2021/06/10 00:50:08;;;;;;;18.42;13.27;;;;;;;15.53;79.72;98858.13;5132500;27;20042;-93
2021/06/10 00:52:34;;;;;;;23.13;14.02;;;;;;;15.41;80.35;98859.53;5132100;27;20040;-92
2021/06/10 00:55:00;;;;;;;19.85;13.85;;;;;;;15.43;80.14;98864.84;5131975;27;20047;-92
2021/06/10 00:57:26;;;;;;;19.48;13.65;;;;;;;15.45;80.25;98871.84;5132144;27;20537;-94
2021/06/10 00:59:52;;;;;;;22.35;13.60;;;;;;;15.38;80.55;98863.22;5130536;27;20039;-94
2021/06/10 01:02:19;;;;;;;18.77;13.18;;;;;;;15.39;80.56;98864.94;5131778;27;20089;-93
2021/06/10 01:04:45;;;;;;;22.80;14.10;;;;;;;15.28;81.37;98858.34;5120178;27;20047;-94
2021/06/10 01:07:16;;;;;;;22.25;14.30;;;;;;;15.20;80.51;98847.97;5118306;27;20036;-93
2021/06/10 01:09:47;;;;;;;17.60;12.73;;;;;;;15.20;79.84;98847.97;5114827;28;20067;-92
2021/06/10 01:12:21;;;;;;;19.95;13.70;;;;;;;15.10;80.26;98842.16;5118014;28;20044;-92
2021/06/10 01:14:55;;;;;;;20.58;14.10;;;;;;;15.20;80.32;98854.22;5111866;28;20056;-91
2021/06/10 01:17:24;;;;;;;18.27;13.10;;;;;;;15.09;80.73;98834.19;5117550;28;20053;-93
2021/06/10 01:20:04;;;;;;;19.48;13.15;;;;;;;15.10;80.51;98833.25;5118122;28;20504;-93
2021/06/10 01:22:39;;;;;;;18.02;13.65;;;;;;;15.10;80.16;98836.81;5108325;28;20040;-93
2021/06/10 01:25:15;;;;;;;19.50;13.70;;;;;;;15.08;80.18;98853.88;5111030;28;20036;-93
2021/06/10 01:27:45;;;;;;;17.50;12.70;;;;;;;15.03;80.67;98845.16;5115659;28;20043;-92
2021/06/10 01:30:15;;;;;;;18.38;13.70;;;;;;;14.99;80.32;98829.25;5115671;28;20043;-94
2021/06/10 01:32:46;;;;;;;20.38;13.35;;;;;;;15.09;80.30;98840.41;5117755;28;20036;-92
2021/06/10 01:35:14;;;;;;;22.13;13.43;;;;;;;15.13;79.68;98836.66;5117740;28;20512;-94
2021/06/10 01:37:42;;;;;;;17.40;12.57;;;;;;;15.24;79.58;98843.34;5117108;28;20047;-94
2021/06/10 01:40:09;;;;;;;21.35;13.73;;;;;;;15.26;78.76;98842.34;5113767;28;20036;-92
2021/06/10 01:42:38;;;;;;;18.92;13.95;;;;;;;15.22;78.69;98846.09;5117176;28;20041;-91
2021/06/10 01:45:07;;;;;;;20.58;13.65;;;;;;;15.16;79.05;98857.09;5114579;28;20039;-92
2021/06/10 01:47:32;;;;;;;;;;;;;;;15.17;78.94;98853.47;5117648;28;20044;-93
2021/06/10 01:49:59;;;;;;;20.83;13.93;;;;;;;15.06;78.91;98832.53;5118040;28;20291;-93
2021/06/10 01:52:26;;;;;;;19.27;13.70;;;;;;;15.04;78.47;98839.75;5105747;28;20136;-92
2021/06/10 01:54:53;;;;;;;18.80;13.13;;;;;;;15.09;77.96;98836.88;5116900;28;20040;-93
2021/06/10 01:57:20;;;;;;;19.42;12.73;;;;;;;15.20;78.12;98837.25;5115479;28;20035;-93
2021/06/10 01:59:47;;;;;;;19.98;13.45;;;;;;;15.17;77.82;98832.03;5115753;28;20063;-93
2021/06/10 02:02:14;;;;;;;19.30;12.80;;;;;;;15.19;77.45;98840.88;5116943;28;20085;-91
2021/06/10 02:04:41;;;;;;;17.35;12.02;;;;;;;15.12;77.91;98831.38;5116093;28;20417;-92
2021/06/10 02:07:09;;;;;;;19.40;13.15;;;;;;;15.16;77.80;98827.66;5116836;28;20484;-93
2021/06/10 02:09:35;;;;;;;17.27;13.05;;;;;;;15.15;78.13;98817.84;5116989;28;20569;-93
2021/06/10 02:12:02;;;;;;;20.27;14.05;;;;;;;15.21;78.33;98830.97;5116044;28;20381;-94
2021/06/10 02:14:29;;;;;;;17.67;12.70;;;;;;;14.97;78.68;98807.03;5115958;28;20099;-93
2021/06/10 02:16:56;;;;;;;16.23;12.70;;;;;;;15.04;78.08;98814.78;5116002;28;20036;-92
2021/06/10 02:19:23;;;;;;;16.48;11.95;;;;;;;15.05;77.38;98808.47;5115338;28;20084;-93
2021/06/10 02:21:49;;;;;;;19.17;14.02;;;;;;;15.03;77.17;98815.72;5116291;28;20028;-92
2021/06/10 02:24:16;;;;;;;21.77;13.48;;;;;;;14.97;77.59;98820.41;5116278;28;20042;-92
2021/06/10 02:26:43;;;;;;;17.85;12.77;;;;;;;14.95;77.69;98816.94;5114860;28;20051;-94
2021/06/10 02:29:09;;;;;;;17.45;13.35;;;;;;;14.91;78.12;98819.81;5116314;28;20054;-93
2021/06/10 02:31:35;;;;;;;19.85;13.23;;;;;;;14.85;78.34;98815.59;5112021;28;20047;-94
2021/06/10 02:34:02;;;;;;;19.05;13.73;;;;;;;14.85;78.41;98820.06;5113508;28;20043;-93
2021/06/10 02:36:30;;;;;;;17.45;12.95;;;;;;;14.87;78.63;98827.09;5116450;28;20059;-94
2021/06/10 02:39:03;;;;;;;19.58;13.13;;;;;;;14.74;78.73;98807.16;5114408;28;20036;-94
2021/06/10 02:41:32;;;;;;;18.73;13.05;;;;;;;14.66;79.63;98830.69;5115561;28;20492;-93
2021/06/10 02:43:59;;;;;;;17.30;13.07;;;;;;;14.52;79.89;98820.56;5116154;28;20031;-93
2021/06/10 02:46:26;;;;;;;18.90;12.43;;;;;;;14.48;80.41;98830.50;5115317;28;20049;-93
2021/06/10 02:48:54;;;;;;;16.48;12.20;;;;;;;14.34;80.01;98815.03;5116200;28;20067;-93
2021/06/10 02:51:22;;;;;;;17.93;12.93;;;;;;;14.25;79.75;98790.47;5116290;28;20484;-92
2021/06/10 02:53:50;;;;;;;19.35;13.18;;;;;;;14.32;79.62;98805.34;5114590;28;20059;-93
2021/06/10 02:56:18;;;;;;;17.88;11.93;;;;;;;14.20;80.19;98808.53;5116227;28;20032;-92
2021/06/10 02:58:45;;;;;;;19.67;13.05;;;;;;;14.17;80.59;98818.41;5116033;28;20040;-93
2021/06/10 03:01:12;;;;;;;18.02;13.00;;;;;;;14.23;80.38;98819.97;5114740;28;20039;-92
2021/06/10 03:03:38;;;;;;;18.60;13.10;;;;;;;14.16;80.56;98816.69;5116202;28;20064;-93
2021/06/10 03:06:05;;;;;;;20.10;12.55;;;;;;;14.12;80.46;98804.38;5116161;28;20038;-94
2021/06/10 03:08:32;;;;;;;17.40;12.35;;;;;;;14.09;80.98;98809.81;5107470;28;20130;-93
2021/06/10 03:11:01;;;;;;;17.42;12.65;;;;;;;14.18;80.35;98830.88;5116259;28;20427;-92
2021/06/10 03:13:30;;;;;;;18.00;12.68;;;;;;;13.89;81.29;98805.28;5112045;28;20040;-92
2021/06/10 03:15:57;;;;;;;19.00;12.93;;;;;;;14.00;81.44;98831.59;5114852;28;20062;-93
2021/06/10 03:18:23;;;;;;;19.08;12.98;;;;;;;13.91;81.32;98816.78;5114918;28;20092;-92
2021/06/10 03:20:49;;;;;;;19.27;13.27;;;;;;;14.00;81.61;98822.72;5116078;28;20058;-94
2021/06/10 03:23:15;;;;;;;18.75;13.65;;;;;;;14.01;81.78;98828.00;5115208;28;20435;-93
2021/06/10 03:25:42;;;;;;;20.40;13.68;;;;;;;13.96;81.60;98813.94;5116067;28;20043;-93
2021/06/10 03:28:09;;;;;;;21.85;14.25;;;;;;;14.00;82.02;98826.25;5115482;28;20122;-94
2021/06/10 03:30:36;;;;;;;20.80;14.30;;;;;;;13.87;82.25;98807.16;5115234;28;20040;-93
2021/06/10 03:33:04;;;;;;;19.45;13.00;;;;;;;13.98;81.97;98838.81;5116151;28;20384;-93
2021/06/10 03:35:32;;;;;;;18.00;13.60;;;;;;;13.79;82.01;98805.72;5116015;28;20145;-92
2021/06/10 03:37:59;;;;;;;21.55;13.80;;;;;;;13.88;82.41;98816.03;5116035;28;20493;-95
2021/06/10 03:40:26;;;;;;;20.98;14.48;;;;;;;13.86;82.29;98816.13;5115391;28;20084;-95
2021/06/10 03:42:52;;;;;;;19.88;13.52;;;;;;;13.96;82.41;98832.66;5117231;28;20381;-91
2021/06/10 03:45:20;;;;;;;21.30;14.55;;;;;;;13.97;82.49;98823.72;5114823;28;20047;-93
2021/06/10 03:47:46;;;;;;;19.90;13.88;;;;;;;13.98;82.16;98828.09;5116017;28;20028;-92
2021/06/10 03:50:13;;;;;;;19.33;13.60;;;;;;;13.97;81.95;98829.91;5115775;28;20060;-93
2021/06/10 03:52:40;;;;;;;19.70;13.63;;;;;;;14.07;81.83;98845.59;5114619;28;20504;-93
2021/06/10 03:55:08;;;;;;;19.95;13.50;;;;;;;14.08;81.91;98839.31;5115552;28;20116;-91
2021/06/10 03:57:35;;;;;;;18.98;13.73;;;;;;;14.09;81.64;98846.41;5115343;28;20093;-92
2021/06/10 04:00:03;;;;;;;19.13;13.98;;;;;;;14.08;81.35;98844.66;5114623;28;20044;-92
2021/06/10 04:02:31;;;;;;;20.83;13.98;;;;;;;14.08;81.77;98842.88;5116018;28;20120;-93
2021/06/10 04:04:56;;;;;;;17.58;13.15;;;;;;;14.16;81.53;98846.09;5115445;28;20495;-92
2021/06/10 04:07:22;;;;;;;17.58;12.30;;;;;;;14.12;80.92;98836.47;5115603;28;20043;-93
2021/06/10 04:09:48;;;;;;;18.13;13.32;;;;;;;14.21;81.16;98847.72;5115684;28;20126;-92
2021/06/10 04:12:14;;;;;;;18.95;13.45;;;;;;;14.31;80.88;98857.09;5115359;28;20031;-92
2021/06/10 04:14:40;;;;;;;19.25;13.55;;;;;;;14.23;80.88;98833.34;5115250;28;20036;-94
2021/06/10 04:17:06;;;;;;;18.55;12.05;;;;;;;14.17;81.62;98831.78;5114286;28;20036;-93
2021/06/10 04:19:34;;;;;;;21.20;13.55;;;;;;;14.20;81.18;98832.59;5115374;28;20042;-93
2021/06/10 04:21:59;;;;;;;18.15;12.55;;;;;;;14.40;81.56;98846.03;5115322;28;20055;-93
2021/06/10 04:24:25;;;;;;;20.45;13.10;;;;;;;14.39;80.36;98839.78;5115658;28;20067;-93
2021/06/10 04:26:51;;;;;;;18.83;13.50;;;;;;;14.47;80.90;98842.16;5114890;28;20043;-92
2021/06/10 04:29:17;;;;;;;17.17;12.68;;;;;;;14.45;80.83;98844.03;5115719;28;20044;-93
2021/06/10 04:31:43;;;;;;;19.20;13.20;;;;;;;14.52;80.34;98858.03;5114616;28;20492;-93
2021/06/10 04:34:09;;;;;;;24.45;13.75;;;;;;;14.50;80.36;98847.38;5115813;28;20040;-92
2021/06/10 04:36:36;;;;;;;19.65;13.68;;;;;;;14.57;80.44;98854.25;5115542;28;20047;-92
2021/06/10 04:39:03;;;;;;;18.60;13.65;;;;;;;14.61;79.13;98844.28;5116551;28;20066;-94
2021/06/10 04:41:29;;;;;;;19.80;12.63;;;;;;;14.82;79.50;98863.06;5119310;27;20446;-93
2021/06/10 04:43:55;;;;;;;20.08;12.60;;;;;;;14.94;78.31;98873.22;5121759;28;20040;-92
2021/06/10 04:46:21;;;;;;;19.55;13.00;;;;;;;14.95;77.05;98865.13;5117840;28;20039;-92
2021/06/10 04:48:46;;;;;;;18.85;12.45;;;;;;;15.03;77.04;98850.53;5119060;28;20071;-93
2021/06/10 04:51:12;;;;;;;18.25;12.63;;;;;;;15.20;76.80;98850.66;5119514;28;20044;-93
2021/06/10 04:56:39;;;;;;;16.85;12.40;;;;;;;16.75;71.75;98869.28;5129330;27;20129;-93
2021/06/10 04:59:04;;;;;;;18.13;12.07;;;;;;;17.36;68.79;98852.66;5113992;28;20036;-94
2021/06/10 05:01:30;;;;;;;16.42;12.02;;;;;;;17.88;67.66;98843.59;5112632;28;20039;-93
2021/06/10 05:03:56;;;;;;;17.00;11.38;;;;;;;18.53;65.28;98856.97;5113151;28;20036;-94
2021/06/10 05:06:22;;;;;;;15.40;11.80;;;;;;;18.66;63.66;98852.59;5112260;28;20032;-91
2021/06/10 05:08:48;;;;;;;14.68;11.43;;;;;;;18.78;62.76;98831.28;5112358;28;20048;-91
2021/06/10 05:11:14;;;;;;;15.18;11.70;;;;;;;19.04;62.09;98851.28;5112857;28;20042;-94
2021/06/10 05:13:41;;;;;;;18.42;11.57;;;;;;;19.13;60.77;98831.88;5112981;28;20044;-93
2021/06/10 05:16:07;;;;;;;15.70;11.57;;;;;;;19.50;60.09;98829.59;5111795;28;20038;-93
2021/06/10 05:18:34;;;;;;;16.88;10.90;;;;;;;19.80;59.23;98853.81;5112237;28;20035;-94
2021/06/10 05:21:00;;;;;;;16.20;11.15;;;;;;;19.83;59.37;98832.00;5111944;28;20396;-93
2021/06/10 05:23:26;;;;;;;17.90;12.05;;;;;;;20.17;58.89;98854.13;5112416;28;20101;-93
2021/06/10 05:25:52;;;;;;;16.90;11.82;;;;;;;20.22;58.08;98853.84;5115474;28;20036;-91
2021/06/10 05:28:17;;;;;;;16.15;12.20;;;;;;;20.33;57.15;98847.72;5112666;28;20070;-92
2021/06/10 05:30:45;;;;;;;16.55;11.93;;;;;;;20.27;58.30;98846.28;5112291;28;20536;-92
2021/06/10 05:33:11;;;;;;;19.48;11.93;;;;;;;20.25;58.15;98846.38;5113069;28;20071;-93
2021/06/10 05:35:36;;;;;;;15.80;12.15;;;;;;;20.46;57.80;98851.34;5113589;28;20081;-94
2021/06/10 05:38:02;;;;;;;15.98;12.38;;;;;;;20.62;56.57;98841.25;5113028;28;20125;-93
2021/06/10 05:40:28;;;;;;;17.33;12.32;;;;;;;20.66;56.06;98852.75;5111346;28;20389;-93
2021/06/10 05:42:54;;;;;;;17.92;12.13;;;;;;;20.77;55.58;98847.47;5111975;28;20047;-94
2021/06/10 05:45:20;;;;;;;17.17;12.20;;;;;;;20.90;55.15;98861.03;5110917;28;20349;-92
2021/06/10 05:47:47;;;;;;;16.38;12.07;;;;;;;21.11;55.08;98862.25;5112134;28;20063;-93
2021/06/10 05:50:14;;;;;;;17.80;11.40;;;;;;;21.13;54.60;98857.63;5112057;28;20070;-94
2021/06/10 05:52:40;;;;;;;15.82;11.57;;;;;;;21.11;54.25;98858.69;5113676;28;20048;-94
2021/06/10 05:55:07;;;;;;;14.00;11.90;;;;;;;21.20;54.45;98868.88;5110692;28;20078;-93
2021/06/10 05:57:33;;;;;;;13.50;10.55;;;;;;;21.20;53.83;98860.75;5109012;28;20047;-92
2021/06/10 05:59:59;;;;;;;16.25;11.48;;;;;;;21.22;52.98;98849.84;5110473;28;20031;-92
2021/06/10 06:02:25;;;;;;;17.58;11.75;;;;;;;21.37;54.26;98865.00;5111572;28;20035;-94
2021/06/10 06:04:52;;;;;;;15.98;11.90;;;;;;;21.42;54.12;98860.16;5114624;28;20055;-93
2021/06/10 06:07:18;;;;;;;18.38;12.32;;;;;;;21.34;54.28;98863.38;5100538;28;20028;-93
2021/06/10 06:09:44;;;;;;;19.45;12.32;;;;;;;21.49;54.13;98856.06;5098237;28;20393;-92
2021/06/10 06:12:11;;;;;;;19.55;12.02;;;;;;;21.47;53.67;98866.13;5098425;28;20046;-93
2021/06/10 06:14:38;;;;;;;17.15;11.07;;;;;;;21.46;54.37;98875.19;5098737;28;20068;-94
2021/06/10 06:17:05;;;;;;;19.67;12.18;;;;;;;21.65;53.77;98876.63;5096185;28;20043;-93
2021/06/10 06:19:32;;;;;;;17.40;11.60;;;;;;;21.58;53.80;98875.31;5099390;28;20126;-93
2021/06/10 06:21:59;;;;;;;19.23;11.63;;;;;;;21.61;53.51;98870.56;5099521;28;20036;-92
2021/06/10 06:24:26;;;;;;;15.52;11.82;;;;;;;21.70;53.22;98869.03;5098065;28;20431;-95
2021/06/10 06:26:52;;;;;;;17.35;11.98;;;;;;;21.83;52.25;98864.47;5099685;28;20489;-93
2021/06/10 06:29:17;;;;;;;14.52;12.05;;;;;;;21.86;52.82;98866.97;5099483;28;20034;-93
2021/06/10 06:31:43;;;;;;;17.83;11.18;;;;;;;22.05;52.48;98876.47;5096719;28;20543;-93
2021/06/10 06:34:09;;;;;;;16.42;12.02;;;;;;;21.60;53.29;98876.06;5097775;28;20128;-92
2021/06/10 06:36:35;;;;;;;14.90;11.82;;;;;;;21.72;52.68;98865.25;5098211;28;20043;-93
2021/06/10 06:39:03;;;;;;;19.20;11.40;;;;;;;21.87;52.93;98863.28;5098169;28;20086;-93
2021/06/10 06:41:28;;;;;;;18.02;11.63;;;;;;;21.95;52.08;98879.84;5098313;28;20064;-93
2021/06/10 06:43:54;;;;;;;13.95;11.32;;;;;;;21.81;52.16;98873.69;5097804;28;20477;-95
2021/06/10 06:46:20;;;;;;;16.13;12.10;;;;;;;21.79;52.16;98870.22;5099945;28;20052;-93
2021/06/10 06:48:46;;;;;;;15.77;11.38;;;;;;;21.71;52.12;98873.50;5098806;28;20119;-92
2021/06/10 06:51:12;;;;;;;14.88;11.52;;;;;;;22.05;51.77;98882.72;5097332;28;20039;-92
2021/06/10 06:53:38;;;;;;;13.48;10.88;;;;;;;22.08;50.75;98866.28;5098831;28;20036;-93
2021/06/10 06:56:05;;;;;;;14.70;11.32;;;;;;;22.42;50.57;98873.78;5097006;28;20511;-93
2021/06/10 06:58:31;;;;;;;17.33;10.73;;;;;;;22.65;49.91;98861.25;5096874;28;20089;-92
2021/06/10 07:00:57;;;;;;;18.33;11.93;;;;;;;22.81;49.13;98863.66;5094650;28;20493;-92
2021/06/10 07:03:23;;;;;;;16.55;11.38;;;;;;;23.00;49.00;98868.53;5088836;28;20044;-92
2021/06/10 07:08:50;;;;;;;16.08;11.35;;;;;;;23.42;48.61;98868.91;5155387;27;20368;-93
2021/06/10 07:11:16;;;;;;;15.90;10.80;;;;;;;23.44;48.82;98866.94;5109036;28;20044;-93
2021/06/10 07:13:42;;;;;;;16.02;11.63;;;;;;;23.67;48.38;98867.88;5113795;28;20069;-93
2021/06/10 07:16:08;;;;;;;15.65;11.15;;;;;;;23.70;48.00;98854.03;5109037;28;20048;-91
2021/06/10 07:18:34;;;;;;;17.05;11.85;;;;;;;23.92;47.79;98856.81;5112984;28;20036;-94
2021/06/10 07:21:00;;;;;;;15.80;11.23;;;;;;;24.02;47.23;98866.91;5112413;28;20036;-92
2021/06/10 07:23:26;;;;;;;16.45;10.80;;;;;;;24.09;46.66;98862.69;5111647;28;20032;-93
2021/06/10 07:25:54;;;;;;;14.32;10.85;;;;;;;24.07;46.30;98856.53;5113725;28;20052;-90
2021/06/10 07:28:20;;;;;;;13.27;10.35;;;;;;;24.23;46.64;98869.75;5111490;28;20036;-92
2021/06/10 07:30:46;;;;;;;15.90;11.10;;;;;;;24.34;46.23;98875.16;5110648;28;20040;-92
2021/06/10 07:33:12;;;;;;;16.13;11.98;;;;;;;23.93;46.48;98863.94;5111178;28;20038;-93
2021/06/10 07:35:39;;;;;;;17.30;10.65;;;;;;;23.95;47.60;98866.53;5113850;28;20047;-94
2021/06/10 07:38:06;;;;;;;14.40;10.40;;;;;;;24.05;46.75;98853.06;5114074;28;20040;-94
2021/06/10 07:40:32;;;;;;;14.95;10.50;;;;;;;24.52;46.64;98875.50;5116918;28;20035;-92
2021/06/10 07:42:59;;;;;;;13.38;10.38;;;;;;;24.83;45.93;98867.50;5111962;28;20122;-93
2021/06/10 07:45:26;;;;;;;13.68;9.88;;;;;;;24.72;45.51;98866.56;5112719;28;20058;-94
2021/06/10 07:47:52;;;;;;;15.07;10.43;;;;;;;24.50;45.55;98855.75;5114211;28;20459;-93
2021/06/10 07:50:18;;;;;;;14.95;10.52;;;;;;;24.91;46.07;98865.00;5114164;28;20040;-92
2021/06/10 07:52:44;;;;;;;12.02;10.30;;;;;;;25.30;44.79;98868.06;5115421;28;20043;-93
2021/06/10 07:55:11;;;;;;;14.10;10.52;;;;;;;25.28;44.01;98840.97;5114634;28;20043;-94
2021/06/10 07:57:37;;;;;;;14.20;10.20;;;;;;;25.39;44.50;98859.97;5114413;28;20055;-93
2021/06/10 08:00:07;;;;;;;14.18;9.98;;;;;;;25.47;44.53;98850.28;5112423;28;20055;-93
2021/06/10 08:02:32;;;;;;;13.35;9.88;;;;;;;25.15;44.48;98848.44;5113689;28;20043;-94
2021/06/10 08:04:59;;;;;;;12.13;9.93;;;;;;;25.27;45.04;98849.28;5113883;28;20108;-93
2021/06/10 08:07:25;;;;;;;14.18;10.05;;;;;;;25.59;44.35;98855.50;5113366;28;20040;-92
2021/06/10 08:09:51;;;;;;;13.85;9.48;;;;;;;25.56;43.87;98849.44;5114122;28;20130;-92
2021/06/10 08:12:17;;;;;;;14.15;9.88;;;;;;;25.71;43.80;98842.66;5114242;28;20484;-94
2021/06/10 08:14:42;;;;;;;12.10;9.80;;;;;;;26.05;43.23;98853.31;5113736;28;20046;-94
2021/06/10 08:17:10;;;;;;;13.23;10.73;;;;;;;26.38;41.84;98845.78;5112594;28;20036;-93
2021/06/10 08:19:39;;;;;;;11.85;9.18;;;;;;;26.72;37.67;98850.88;5102379;28;20036;-93
2021/06/10 08:22:05;;;;;;;10.48;9.10;;;;;;;26.12;36.30;98850.91;5101308;28;20501;-95
2021/06/10 08:24:31;;;;;;;10.80;9.25;;;;;;;25.58;38.81;98847.47;5100600;28;20397;-93
2021/06/10 08:26:57;;;;;;;13.60;9.40;;;;;;;25.80;38.90;98851.88;5099676;28;20040;-91
2021/06/10 08:29:27;;;;;;;10.82;8.70;;;;;;;25.93;37.05;98849.81;5100696;28;20384;-93
2021/06/10 08:31:54;;;;;;;11.20;8.90;;;;;;;25.93;37.20;98841.63;5099671;28;20055;-92
2021/06/10 08:34:21;;;;;;;10.85;9.40;;;;;;;25.57;37.67;98845.75;5101974;28;20047;-95
2021/06/10 08:36:50;;;;;;;12.10;8.90;;;;;;;25.23;38.42;98858.72;5102593;28;20059;-93
2021/06/10 08:39:16;;;;;;;10.70;9.40;;;;;;;25.02;38.12;98845.91;5103355;28;20493;-93
2021/06/10 08:41:44;;;;;;;11.65;9.45;;;;;;;25.48;39.33;98841.09;5100874;28;20040;-94
2021/06/10 08:44:10;;;;;;;12.07;8.82;;;;;;;25.95;39.04;98822.44;5102313;28;20047;-92
2021/06/10 08:46:40;;;;;;;10.80;8.95;;;;;;;26.47;38.57;98834.03;5103826;28;20036;-93
2021/06/10 08:49:07;;;;;;;11.10;8.77;;;;;;;26.52;39.58;98841.78;5119273;28;20058;-92
2021/06/10 08:51:35;;;;;;;13.23;10.10;;;;;;;25.97;38.82;98842.22;5108631;28;20047;-94
2021/06/10 08:54:02;;;;;;;12.32;9.65;;;;;;;25.49;39.23;98827.34;5122459;28;20046;-94
2021/06/10 08:56:30;;;;;;;10.90;9.80;;;;;;;25.51;39.59;98852.59;5117304;28;20047;-94
2021/06/10 08:58:57;;;;;;;12.35;9.50;;;;;;;26.00;39.10;98848.28;5114927;28;20461;-94
2021/06/10 09:01:23;;;;;;;13.68;9.65;;;;;;;26.46;38.45;98820.53;5099731;28;20047;-94
2021/06/10 09:03:49;;;;;;;13.50;9.82;;;;;;;26.93;37.24;98823.47;5098466;28;20096;-94
2021/06/10 09:06:17;;;;;;;11.93;9.40;;;;;;;27.07;37.12;98846.75;5097577;28;20047;-92
2021/06/10 09:08:46;;;;;;;12.40;9.82;;;;;;;26.91;37.80;98841.84;5078726;28;20041;-92
2021/06/10 09:11:16;;;;;;;13.05;10.10;;;;;;;26.50;37.81;98825.59;5089097;28;20052;-91
2021/06/10 09:13:46;;;;;;;12.02;10.38;;;;;;;26.51;37.58;98823.72;5095018;28;20044;-94
2021/06/10 09:16:33;;;;;;;12.52;9.90;;;;;;;26.61;37.87;98854.63;5085148;28;20040;-92
2021/06/10 09:19:02;;;;;;;12.45;10.13;;;;;;;26.31;37.87;98858.28;5072629;28;20366;-93
2021/06/10 09:21:34;;;;;;;13.68;10.50;;;;;;;26.46;37.32;98848.69;5079352;28;20076;-91
2021/06/10 09:24:23;;;;;;;14.00;10.90;;;;;;;26.57;37.46;98845.00;5089261;28;20438;-93
2021/06/10 09:27:02;;;;;;;11.77;9.82;;;;;;;26.95;38.41;98855.06;5089180;28;20472;-95
2021/06/10 09:29:39;;;;;;;11.55;10.15;;;;;;;27.47;35.42;98841.09;5085484;28;20039;-92
2021/06/10 09:32:09;;;;;;;13.07;9.95;;;;;;;27.86;34.78;98843.75;5057069;28;20036;-93
2021/06/10 09:34:47;;;;;;;12.15;10.07;;;;;;;27.79;35.39;98837.13;5077573;28;20048;-95
2021/06/10 09:37:15;;;;;;;14.88;10.32;;;;;;;27.76;36.05;98837.41;5075172;28;20384;-93
2021/06/10 09:39:54;;;;;;;14.17;10.60;;;;;;;28.10;34.79;98847.81;5085802;28;20041;-92
2021/06/10 09:42:33;;;;;;;13.77;10.55;;;;;;;27.32;36.98;98846.16;5079572;28;20131;-93
2021/06/10 09:45:01;;;;;;;12.25;10.02;;;;;;;27.60;36.48;98841.63;5084384;28;20044;-93
2021/06/10 09:47:35;;;;;;;11.30;10.10;;;;;;;27.50;36.46;98832.63;5079514;28;20050;-92
2021/06/10 09:50:14;;;;;;;12.77;10.77;;;;;;;27.10;37.25;98838.25;5083449;28;20040;-92
2021/06/10 09:52:48;;;;;;;12.05;10.55;;;;;;;27.11;36.18;98843.59;5093216;28;20426;-94
2021/06/10 09:55:34;;;;;;;13.35;10.63;;;;;;;27.57;36.22;98844.69;5091349;28;20048;-92
2021/06/10 09:58:23;;;;;;;14.38;10.63;;;;;;;28.00;34.31;98846.00;5073785;28;20363;-94
2021/06/10 10:00:54;;;;;;;12.77;10.50;;;;;;;28.03;34.00;98833.91;5095684;28;20420;-94
2021/06/10 10:03:29;;;;;;;12.57;10.70;;;;;;;28.01;34.28;98836.78;5079975;28;20127;-92
2021/06/10 10:05:58;;;;;;;12.82;10.30;;;;;;;28.26;32.71;98821.56;5088833;28;20040;-96
2021/06/10 10:08:24;;;;;;;14.60;10.93;;;;;;;28.53;32.42;98833.50;5095056;28;20059;-96
2021/06/10 10:10:52;;;;;;;12.90;10.57;;;;;;;28.47;32.25;98826.75;5106434;28;20067;-93
2021/06/10 10:13:19;;;;;;;12.20;10.88;;;;;;;28.65;31.66;98817.72;5106473;28;20085;-92
2021/06/10 10:15:45;;;;;;;13.20;11.05;;;;;;;28.64;30.54;98810.53;5098502;28;20082;-91
2021/06/10 10:18:11;;;;;;;12.18;10.85;;;;;;;28.84;31.46;98812.09;5108472;28;20094;-93
2021/06/10 10:23:37;;;;;;;12.95;11.38;;;;;;;29.54;31.62;98818.63;5147758;27;20154;-91
2021/06/10 10:26:05;;;;;;;13.52;11.52;;;;;;;29.42;31.36;98832.59;5118497;28;20051;-91
2021/06/10 10:31:36;;;;;;;13.93;11.35;;;;;;;29.33;32.59;98814.41;5151565;27;20148;-91
2021/06/10 10:34:02;;;;;;;15.98;10.90;;;;;;;29.35;32.61;98820.59;5134427;27;20040;-92
2021/06/10 10:36:39;;;;;;;13.95;10.77;;;;;;;29.51;32.63;98814.34;5134515;28;20043;-93
2021/06/10 10:39:07;;;;;;;12.65;11.27;;;;;;;28.83;32.33;98815.84;5135543;27;20047;-94
2021/06/10 10:41:47;;;;;;;13.35;11.25;;;;;;;29.33;33.11;98795.22;5130205;28;20414;-93
2021/06/10 10:47:14;;;;;;;14.50;11.30;;;;;;;28.83;33.39;98793.09;5185317;27;124918;-92
2021/06/10 10:49:42;;;;;;;12.88;11.30;;;;;;;28.38;34.95;98794.84;5199233;27;20052;-94
2021/06/10 10:52:39;;;;;;;14.77;10.98;;;;;;;28.09;34.24;98807.84;5187745;27;20065;-95
2021/06/10 10:55:22;;;;;;;14.27;11.35;;;;;;;28.81;33.44;98803.34;5127054;28;20140;-94
2021/06/10 10:57:59;;;;;;;14.05;10.88;;;;;;;29.40;32.18;98798.19;5120080;28;20035;-92
2021/06/10 11:00:48;;;;;;;13.82;12.07;;;;;;;27.79;34.48;98780.59;5113672;28;20552;-93
2021/06/10 11:03:17;;;;;;;13.35;12.05;;;;;;;27.89;35.64;98802.47;5120171;28;20047;-92
2021/06/10 11:05:44;;;;;;;13.02;11.68;;;;;;;28.20;33.72;98799.44;5135858;28;20413;-93
2021/06/10 11:08:11;;;;;;;15.40;11.05;;;;;;;27.75;34.19;98775.59;5124666;28;20040;-92
2021/06/10 11:11:01;;;;;;;12.93;11.20;;;;;;;27.69;36.65;98784.38;5126699;28;20040;-90
2021/06/10 11:13:29;;;;;;;14.23;12.15;;;;;;;26.71;39.14;98794.63;5134951;28;20562;-94
2021/06/10 11:15:58;;;;;;;13.85;11.88;;;;;;;26.33;38.35;98794.41;5125958;28;20061;-93
2021/06/10 11:18:40;;;;;;;;;;;;;;;25.78;40.69;98815.72;5128948;28;20078;-91
2021/06/10 11:21:07;;;;;;;22.35;14.18;;;;;;;24.91;46.76;98814.16;5120769;28;20396;-90
2021/06/10 11:23:33;;;;;;;19.75;14.25;;;;;;;24.18;52.01;98832.94;5128245;28;20043;-92
2021/06/10 11:26:03;;;;;;;30.92;17.05;;;;;;;23.11;59.86;98823.34;5125952;28;20123;-90
2021/06/10 11:28:34;;;;;;;18.60;13.00;;;;;;;23.23;52.89;98815.25;5116110;27;20590;-91
2021/06/10 11:31:13;;;;;;;19.98;13.98;;;;;;;23.57;57.95;98827.88;5170006;27;20030;-92
2021/06/10 11:33:40;;;;;;;;;;;;;;;23.49;53.07;98819.47;5181456;27;20069;-93
2021/06/10 11:36:09;;;;;;;17.55;13.98;;;;;;;23.49;50.07;98789.63;5183053;27;19971;-93
2021/06/10 11:38:38;;;;;;;17.60;13.93;;;;;;;23.53;52.90;98801.97;5189991;27;20593;-89